sensor_id;sensor_type;location;lat;lon;timestamp;pressure;altitude;pressure_sealevel;temperature;humidity
21185;BME280;18176;49.502;11.754;2023-02-17T00:01:26;97757.22;;;4.07;81.58
21185;BME280;18176;49.502;11.754;2023-02-17T00:05:29;97769.03;;;3.95;81.30
21185;BME280;18176;49.502;11.754;2023-02-17T00:09:32;97761.03;;;3.80;81.60
21185;BME280;18176;49.502;11.754;2023-02-17T00:13:34;97764.22;;;3.51;82.18
21185;BME280;18176;49.502;11.754;2023-02-17T00:17:34;97748.97;;;3.39;82.52
21185;BME280;18176;49.502;11.754;2023-02-17T00:21:35;97749.47;;;3.34;82.55
21185;BME280;18176;49.502;11.754;2023-02-17T00:25:39;97741.78;;;3.17;84.07
21185;BME280;18176;49.502;11.754;2023-02-17T00:29:40;97743.91;;;3.21;83.62
21185;BME280;18176;49.502;11.754;2023-02-17T00:33:40;97752.75;;;3.20;83.57
21185;BME280;18176;49.502;11.754;2023-02-17T00:37:41;97762.56;;;3.10;84.96
21185;BME280;18176;49.502;11.754;2023-02-17T00:41:45;97751.09;;;3.11;85.73
21185;BME280;18176;49.502;11.754;2023-02-17T00:45:46;97738.00;;;3.27;85.97
21185;BME280;18176;49.502;11.754;2023-02-17T00:49:46;97748.19;;;3.38;86.25
21185;BME280;18176;49.502;11.754;2023-02-17T00:53:48;97736.03;;;3.45;86.86
21185;BME280;18176;49.502;11.754;2023-02-17T00:57:51;97751.09;;;3.51;87.36
21185;BME280;18176;49.502;11.754;2023-02-17T01:01:52;97749.09;;;3.70;87.16
21185;BME280;18176;49.502;11.754;2023-02-17T01:05:54;97744.19;;;3.67;87.75
21185;BME280;18176;49.502;11.754;2023-02-17T01:09:55;97728.78;;;3.80;87.04
21185;BME280;18176;49.502;11.754;2023-02-17T01:14:02;97740.91;;;3.81;86.88
21185;BME280;18176;49.502;11.754;2023-02-17T01:18:04;97738.59;;;3.86;86.59
21185;BME280;18176;49.502;11.754;2023-02-17T01:22:05;97734.31;;;3.93;86.00
21185;BME280;18176;49.502;11.754;2023-02-17T01:26:05;97735.78;;;3.95;85.85
21185;BME280;18176;49.502;11.754;2023-02-17T01:30:10;97720.56;;;3.91;85.95
21185;BME280;18176;49.502;11.754;2023-02-17T01:34:11;97714.63;;;3.97;85.68
21185;BME280;18176;49.502;11.754;2023-02-17T01:38:11;97717.06;;;3.98;85.72
21185;BME280;18176;49.502;11.754;2023-02-17T01:42:15;97716.59;;;4.03;86.10
21185;BME280;18176;49.502;11.754;2023-02-17T01:46:20;97699.53;;;4.07;85.72
21185;BME280;18176;49.502;11.754;2023-02-17T01:50:29;97690.66;;;4.08;86.13
21185;BME280;18176;49.502;11.754;2023-02-17T01:54:38;97686.38;;;4.15;85.89
21185;BME280;18176;49.502;11.754;2023-02-17T01:58:43;97688.59;;;4.26;85.65
21185;BME280;18176;49.502;11.754;2023-02-17T02:02:49;97675.34;;;4.28;85.19
21185;BME280;18176;49.502;11.754;2023-02-17T02:06:50;97669.72;;;4.31;85.63
21185;BME280;18176;49.502;11.754;2023-02-17T02:10:51;97654.13;;;4.37;85.08
21185;BME280;18176;49.502;11.754;2023-02-17T02:14:54;97652.47;;;4.36;84.56
21185;BME280;18176;49.502;11.754;2023-02-17T02:19:14;97645.22;;;4.15;85.31
21185;BME280;18176;49.502;11.754;2023-02-17T02:28:35;97641.88;;;4.52;84.01
21185;BME280;18176;49.502;11.754;2023-02-17T02:33:00;97636.53;;;4.46;84.08
21185;BME280;18176;49.502;11.754;2023-02-17T02:37:11;97615.06;;;4.42;83.81
21185;BME280;18176;49.502;11.754;2023-02-17T02:41:18;97636.88;;;4.65;83.60
21185;BME280;18176;49.502;11.754;2023-02-17T02:45:20;97631.75;;;4.72;83.85
21185;BME280;18176;49.502;11.754;2023-02-17T02:49:24;97635.41;;;4.85;83.53
21185;BME280;18176;49.502;11.754;2023-02-17T02:53:52;97632.03;;;5.00;83.19
21185;BME280;18176;49.502;11.754;2023-02-17T02:58:05;97638.31;;;4.90;82.97
21185;BME280;18176;49.502;11.754;2023-02-17T03:02:18;97635.44;;;5.00;82.71
21185;BME280;18176;49.502;11.754;2023-02-17T03:06:29;97631.72;;;4.94;82.53
21185;BME280;18176;49.502;11.754;2023-02-17T03:10:31;97626.81;;;4.91;82.39
21185;BME280;18176;49.502;11.754;2023-02-17T03:14:37;97616.31;;;4.91;82.17
21185;BME280;18176;49.502;11.754;2023-02-17T03:18:37;97619.56;;;4.93;82.19
21185;BME280;18176;49.502;11.754;2023-02-17T03:22:46;97626.09;;;4.97;82.29
21185;BME280;18176;49.502;11.754;2023-02-17T03:26:47;97606.78;;;4.90;82.73
21185;BME280;18176;49.502;11.754;2023-02-17T03:30:48;97617.16;;;5.07;82.21
21185;BME280;18176;49.502;11.754;2023-02-17T03:34:48;97603.03;;;5.08;82.24
21185;BME280;18176;49.502;11.754;2023-02-17T03:38:51;97608.47;;;5.06;82.21
21185;BME280;18176;49.502;11.754;2023-02-17T03:42:52;97616.16;;;5.08;82.26
21185;BME280;18176;49.502;11.754;2023-02-17T03:46:52;97610.19;;;5.14;82.16
21185;BME280;18176;49.502;11.754;2023-02-17T03:50:53;97619.00;;;5.21;82.14
21185;BME280;18176;49.502;11.754;2023-02-17T03:54:57;97593.88;;;5.04;82.08
21185;BME280;18176;49.502;11.754;2023-02-17T03:58:57;97607.75;;;5.12;82.32
21185;BME280;18176;49.502;11.754;2023-02-17T04:02:58;97596.06;;;5.15;82.32
21185;BME280;18176;49.502;11.754;2023-02-17T04:06:58;97590.72;;;5.08;82.74
21185;BME280;18176;49.502;11.754;2023-02-17T04:11:03;97598.31;;;5.03;83.09
21185;BME280;18176;49.502;11.754;2023-02-17T04:15:05;97595.88;;;5.02;84.25
21185;BME280;18176;49.502;11.754;2023-02-17T04:19:06;97593.34;;;5.08;85.16
21185;BME280;18176;49.502;11.754;2023-02-17T04:23:08;97591.09;;;5.20;85.29
21185;BME280;18176;49.502;11.754;2023-02-17T04:27:13;97594.53;;;5.35;85.64
21185;BME280;18176;49.502;11.754;2023-02-17T04:31:14;97577.78;;;5.36;84.85
21185;BME280;18176;49.502;11.754;2023-02-17T04:35:15;97584.22;;;5.33;84.59
21185;BME280;18176;49.502;11.754;2023-02-17T04:39:15;97574.97;;;5.37;84.41
21185;BME280;18176;49.502;11.754;2023-02-17T04:43:19;97577.97;;;5.49;84.56
21185;BME280;18176;49.502;11.754;2023-02-17T04:47:19;97577.97;;;5.49;84.59
21185;BME280;18176;49.502;11.754;2023-02-17T04:51:20;97583.50;;;5.39;87.46
21185;BME280;18176;49.502;11.754;2023-02-17T04:55:21;97577.50;;;5.60;87.99
21185;BME280;18176;49.502;11.754;2023-02-17T04:59:24;97569.97;;;5.86;86.99
21185;BME280;18176;49.502;11.754;2023-02-17T05:03:25;97555.81;;;5.87;87.24
21185;BME280;18176;49.502;11.754;2023-02-17T05:07:26;97580.44;;;6.15;86.99
21185;BME280;18176;49.502;11.754;2023-02-17T05:11:26;97575.44;;;6.42;86.83
21185;BME280;18176;49.502;11.754;2023-02-17T05:15:30;97567.66;;;6.76;85.10
21185;BME280;18176;49.502;11.754;2023-02-17T05:19:32;97566.09;;;6.81;85.90
21185;BME280;18176;49.502;11.754;2023-02-17T05:23:32;97542.38;;;6.81;84.69
21185;BME280;18176;49.502;11.754;2023-02-17T05:27:37;97541.28;;;7.31;83.43
21185;BME280;18176;49.502;11.754;2023-02-17T05:31:44;97544.72;;;7.66;82.20
21185;BME280;18176;49.502;11.754;2023-02-17T05:35:44;97538.28;;;7.82;80.18
21185;BME280;18176;49.502;11.754;2023-02-17T05:39:45;97512.41;;;8.18;79.24
21185;BME280;18176;49.502;11.754;2023-02-17T05:43:47;97531.97;;;8.43;78.74
21185;BME280;18176;49.502;11.754;2023-02-17T05:47:50;97540.53;;;8.65;77.15
21185;BME280;18176;49.502;11.754;2023-02-17T05:51:52;97540.94;;;8.81;76.02
21185;BME280;18176;49.502;11.754;2023-02-17T05:55:53;97528.91;;;9.05;75.08
21185;BME280;18176;49.502;11.754;2023-02-17T05:59:53;97537.66;;;9.12;74.97
21185;BME280;18176;49.502;11.754;2023-02-17T06:03:57;97546.19;;;9.21;74.31
21185;BME280;18176;49.502;11.754;2023-02-17T06:07:57;97546.59;;;9.17;74.53
21185;BME280;18176;49.502;11.754;2023-02-17T06:11:58;97547.19;;;9.19;73.15
21185;BME280;18176;49.502;11.754;2023-02-17T06:15:58;97546.19;;;9.21;72.97
21185;BME280;18176;49.502;11.754;2023-02-17T06:20:04;97556.78;;;9.21;73.47
21185;BME280;18176;49.502;11.754;2023-02-17T06:24:06;97546.19;;;9.27;71.46
21185;BME280;18176;49.502;11.754;2023-02-17T06:28:09;97533.53;;;9.42;70.60
21185;BME280;18176;49.502;11.754;2023-02-17T06:32:13;97535.84;;;9.76;69.73
21185;BME280;18176;49.502;11.754;2023-02-17T06:36:16;97541.13;;;9.76;68.95
21185;BME280;18176;49.502;11.754;2023-02-17T06:40:18;97545.66;;;9.76;68.45
21185;BME280;18176;49.502;11.754;2023-02-17T06:44:18;97540.66;;;9.93;68.53
21185;BME280;18176;49.502;11.754;2023-02-17T06:48:19;97548.75;;;10.17;67.48
21185;BME280;18176;49.502;11.754;2023-02-17T06:52:23;97553.81;;;10.19;68.83
21185;BME280;18176;49.502;11.754;2023-02-17T06:56:23;97554.09;;;10.42;69.63
21185;BME280;18176;49.502;11.754;2023-02-17T07:00:24;97553.44;;;10.46;69.84
21185;BME280;18176;49.502;11.754;2023-02-17T07:04:25;97553.19;;;10.54;69.34
21185;BME280;18176;49.502;11.754;2023-02-17T07:08:30;97552.72;;;10.33;70.37
21185;BME280;18176;49.502;11.754;2023-02-17T07:12:33;97550.13;;;10.57;69.48
21185;BME280;18176;49.502;11.754;2023-02-17T07:16:33;97552.66;;;10.71;68.77
21185;BME280;18176;49.502;11.754;2023-02-17T07:20:35;97550.53;;;10.86;68.91
21185;BME280;18176;49.502;11.754;2023-02-17T07:24:39;97546.75;;;11.00;67.28
21185;BME280;18176;49.502;11.754;2023-02-17T07:28:40;97533.47;;;11.00;66.51
21185;BME280;18176;49.502;11.754;2023-02-17T07:32:40;97537.78;;;11.19;66.24
21185;BME280;18176;49.502;11.754;2023-02-17T07:36:41;97530.47;;;11.14;64.99
21185;BME280;18176;49.502;11.754;2023-02-17T07:40:45;97554.91;;;11.23;64.11
21185;BME280;18176;49.502;11.754;2023-02-17T07:44:46;97549.13;;;11.26;64.15
21185;BME280;18176;49.502;11.754;2023-02-17T07:48:47;97552.53;;;11.51;63.70
21185;BME280;18176;49.502;11.754;2023-02-17T07:52:49;97556.97;;;11.39;64.06
21185;BME280;18176;49.502;11.754;2023-02-17T07:56:52;97553.28;;;11.40;64.64
21185;BME280;18176;49.502;11.754;2023-02-17T08:00:53;97548.91;;;11.09;67.38
21185;BME280;18176;49.502;11.754;2023-02-17T08:04:54;97558.69;;;11.09;67.73
21185;BME280;18176;49.502;11.754;2023-02-17T08:08:55;97551.81;;;11.01;68.43
21185;BME280;18176;49.502;11.754;2023-02-17T08:13:11;97552.09;;;11.18;68.19
21185;BME280;18176;49.502;11.754;2023-02-17T08:17:20;97541.72;;;11.10;68.21
21185;BME280;18176;49.502;11.754;2023-02-17T08:21:21;97555.47;;;11.25;68.42
21185;BME280;18176;49.502;11.754;2023-02-17T08:25:22;97546.44;;;11.08;69.00
21185;BME280;18176;49.502;11.754;2023-02-17T08:29:25;97551.97;;;11.49;68.18
21185;BME280;18176;49.502;11.754;2023-02-17T08:33:26;97547.94;;;11.65;67.00
21185;BME280;18176;49.502;11.754;2023-02-17T08:37:27;97543.59;;;11.70;66.92
21185;BME280;18176;49.502;11.754;2023-02-17T08:41:32;97542.09;;;11.38;67.38
21185;BME280;18176;49.502;11.754;2023-02-17T08:45:36;97539.59;;;11.61;66.73
21185;BME280;18176;49.502;11.754;2023-02-17T08:49:37;97560.59;;;11.45;67.93
21185;BME280;18176;49.502;11.754;2023-02-17T08:53:37;97541.84;;;11.82;67.29
21185;BME280;18176;49.502;11.754;2023-02-17T08:57:38;97536.66;;;11.87;67.23
21185;BME280;18176;49.502;11.754;2023-02-17T09:01:42;97545.81;;;11.73;68.22
21185;BME280;18176;49.502;11.754;2023-02-17T09:05:43;97535.47;;;11.83;68.05
21185;BME280;18176;49.502;11.754;2023-02-17T09:09:46;97544.09;;;11.79;67.99
21185;BME280;18176;49.502;11.754;2023-02-17T09:13:46;97549.78;;;11.82;67.78
21185;BME280;18176;49.502;11.754;2023-02-17T09:17:50;97548.09;;;12.06;67.01
21185;BME280;18176;49.502;11.754;2023-02-17T09:21:50;97536.16;;;11.97;68.78
21185;BME280;18176;49.502;11.754;2023-02-17T09:26:01;97533.53;;;12.38;68.59
21185;BME280;18176;49.502;11.754;2023-02-17T09:30:04;97532.28;;;12.41;69.43
21185;BME280;18176;49.502;11.754;2023-02-17T09:34:08;97543.13;;;12.81;68.21
21185;BME280;18176;49.502;11.754;2023-02-17T09:38:08;97538.19;;;12.43;69.08
21185;BME280;18176;49.502;11.754;2023-02-17T09:42:16;97523.41;;;12.47;69.22
21185;BME280;18176;49.502;11.754;2023-02-17T09:46:24;97528.38;;;12.55;68.80
21185;BME280;18176;49.502;11.754;2023-02-17T09:50:37;97543.50;;;12.43;69.33
21185;BME280;18176;49.502;11.754;2023-02-17T09:54:52;97541.38;;;12.33;70.34
21185;BME280;18176;49.502;11.754;2023-02-17T09:59:00;97550.91;;;12.23;70.92
21185;BME280;18176;49.502;11.754;2023-02-17T10:03:11;97542.91;;;12.41;70.23
21185;BME280;18176;49.502;11.754;2023-02-17T10:07:24;97541.00;;;12.30;70.85
21185;BME280;18176;49.502;11.754;2023-02-17T10:11:33;97522.22;;;12.43;70.50
21185;BME280;18176;49.502;11.754;2023-02-17T10:15:40;97528.38;;;12.55;70.45
21185;BME280;18176;49.502;11.754;2023-02-17T10:19:52;97550.13;;;12.52;70.46
21185;BME280;18176;49.502;11.754;2023-02-17T10:23:57;97537.25;;;12.49;71.58
21185;BME280;18176;49.502;11.754;2023-02-17T10:28:07;97515.88;;;12.44;71.41
21185;BME280;18176;49.502;11.754;2023-02-17T10:32:20;97535.63;;;12.48;71.80
21185;BME280;18176;49.502;11.754;2023-02-17T10:36:29;97538.41;;;12.53;71.93
21185;BME280;18176;49.502;11.754;2023-02-17T10:40:35;97538.94;;;12.85;70.63
21185;BME280;18176;49.502;11.754;2023-02-17T10:44:44;97529.88;;;12.51;71.98
21185;BME280;18176;49.502;11.754;2023-02-17T10:48:48;97542.28;;;12.57;71.66
21185;BME280;18176;49.502;11.754;2023-02-17T10:52:50;97514.91;;;12.80;71.01
21185;BME280;18176;49.502;11.754;2023-02-17T10:57:00;97511.91;;;12.99;70.13
21185;BME280;18176;49.502;11.754;2023-02-17T11:01:04;97498.66;;;13.11;69.58
21185;BME280;18176;49.502;11.754;2023-02-17T11:05:05;97497.50;;;13.18;69.57
21185;BME280;18176;49.502;11.754;2023-02-17T11:09:18;97511.94;;;13.11;69.38
21185;BME280;18176;49.502;11.754;2023-02-17T11:13:36;97493.41;;;13.51;68.27
21185;BME280;18176;49.502;11.754;2023-02-17T11:17:38;97474.72;;;13.74;67.84
21185;BME280;18176;49.502;11.754;2023-02-17T11:21:42;97491.44;;;13.58;68.21
21185;BME280;18176;49.502;11.754;2023-02-17T11:25:58;97495.97;;;13.11;70.35
21185;BME280;18176;49.502;11.754;2023-02-17T11:30:15;97483.38;;;13.06;71.09
21185;BME280;18176;49.502;11.754;2023-02-17T11:34:23;97478.03;;;12.83;72.26
21185;BME280;18176;49.502;11.754;2023-02-17T11:38:27;97475.59;;;12.82;72.91
21185;BME280;18176;49.502;11.754;2023-02-17T11:42:35;97478.16;;;12.88;72.46
21185;BME280;18176;49.502;11.754;2023-02-17T11:46:46;97486.81;;;12.95;73.68
21185;BME280;18176;49.502;11.754;2023-02-17T11:50:58;97486.63;;;13.08;73.22
21185;BME280;18176;49.502;11.754;2023-02-17T11:55:19;97469.47;;;13.04;72.83
21185;BME280;18176;49.502;11.754;2023-02-17T11:59:49;97472.28;;;13.09;73.61
21185;BME280;18176;49.502;11.754;2023-02-17T12:04:29;97460.34;;;12.89;76.06
21185;BME280;18176;49.502;11.754;2023-02-17T12:08:51;97468.03;;;12.44;79.33
21185;BME280;18176;49.502;11.754;2023-02-17T12:13:17;97474.34;;;12.84;79.39
21185;BME280;18176;49.502;11.754;2023-02-17T12:17:37;97469.25;;;13.17;79.71
21185;BME280;18176;49.502;11.754;2023-02-17T12:21:58;97479.69;;;13.07;79.67
21185;BME280;18176;49.502;11.754;2023-02-17T12:26:10;97478.84;;;13.42;78.87
21185;BME280;18176;49.502;11.754;2023-02-17T12:30:26;97472.75;;;13.06;80.07
21185;BME280;18176;49.502;11.754;2023-02-17T12:34:37;97484.50;;;13.33;80.27
21185;BME280;18176;49.502;11.754;2023-02-17T12:38:46;97482.34;;;13.07;81.42
21185;BME280;18176;49.502;11.754;2023-02-17T12:42:54;97479.41;;;12.97;82.52
21185;BME280;18176;49.502;11.754;2023-02-17T12:47:03;97482.03;;;12.51;82.71
21185;BME280;18176;49.502;11.754;2023-02-17T12:51:11;97463.13;;;12.71;82.54
21185;BME280;18176;49.502;11.754;2023-02-17T12:55:21;97472.06;;;12.46;83.46
21185;BME280;18176;49.502;11.754;2023-02-17T12:59:31;97465.41;;;12.67;82.83
21185;BME280;18176;49.502;11.754;2023-02-17T13:03:34;97464.38;;;12.68;82.30
21185;BME280;18176;49.502;11.754;2023-02-17T13:07:44;97468.41;;;12.59;82.70
21185;BME280;18176;49.502;11.754;2023-02-17T13:11:52;97468.44;;;12.71;82.36
21185;BME280;18176;49.502;11.754;2023-02-17T13:16:04;97466.91;;;12.63;82.28
21185;BME280;18176;49.502;11.754;2023-02-17T13:20:27;97482.44;;;12.36;83.47
21185;BME280;18176;49.502;11.754;2023-02-17T13:24:33;97461.25;;;12.83;82.25
21185;BME280;18176;49.502;11.754;2023-02-17T13:28:40;97462.50;;;12.80;81.70
21185;BME280;18176;49.502;11.754;2023-02-17T13:32:41;97459.16;;;12.96;80.72
21185;BME280;18176;49.502;11.754;2023-02-17T13:36:42;97466.34;;;12.84;81.77
21185;BME280;18176;49.502;11.754;2023-02-17T13:40:43;97462.41;;;12.63;82.55
21185;BME280;18176;49.502;11.754;2023-02-17T13:44:50;97458.50;;;12.78;81.88
21185;BME280;18176;49.502;11.754;2023-02-17T13:49:00;97447.75;;;13.07;80.73
21185;BME280;18176;49.502;11.754;2023-02-17T13:53:18;97445.69;;;13.09;80.07
21185;BME280;18176;49.502;11.754;2023-02-17T13:57:26;97421.22;;;13.01;80.18
21185;BME280;18176;49.502;11.754;2023-02-17T14:01:30;97435.25;;;12.73;82.00
21185;BME280;18176;49.502;11.754;2023-02-17T14:05:39;97445.19;;;12.78;81.60
21185;BME280;18176;49.502;11.754;2023-02-17T14:09:41;97431.22;;;12.82;81.94
21185;BME280;18176;49.502;11.754;2023-02-17T14:13:46;97432.00;;;12.83;82.47
21185;BME280;18176;49.502;11.754;2023-02-17T14:17:50;97439.06;;;12.89;81.52
21185;BME280;18176;49.502;11.754;2023-02-17T14:22:00;97439.41;;;13.15;80.26
21185;BME280;18176;49.502;11.754;2023-02-17T14:26:11;97421.34;;;12.94;80.82
21185;BME280;18176;49.502;11.754;2023-02-17T14:30:14;97427.16;;;13.14;79.99
21185;BME280;18176;49.502;11.754;2023-02-17T14:34:29;97421.72;;;13.09;80.15
21185;BME280;18176;49.502;11.754;2023-02-17T14:38:34;97432.13;;;13.11;80.08
21185;BME280;18176;49.502;11.754;2023-02-17T14:42:35;97423.94;;;12.89;80.98
21185;BME280;18176;49.502;11.754;2023-02-17T14:46:36;97424.81;;;13.29;79.81
21185;BME280;18176;49.502;11.754;2023-02-17T14:50:39;97410.97;;;13.16;80.28
21185;BME280;18176;49.502;11.754;2023-02-17T14:54:41;97406.91;;;13.65;77.89
21185;BME280;18176;49.502;11.754;2023-02-17T14:58:42;97392.34;;;13.56;78.12
21185;BME280;18176;49.502;11.754;2023-02-17T15:02:44;97390.53;;;13.33;79.60
21185;BME280;18176;49.502;11.754;2023-02-17T15:06:51;97403.34;;;13.48;79.18
21185;BME280;18176;49.502;11.754;2023-02-17T15:10:52;97383.28;;;13.57;78.96
21185;BME280;18176;49.502;11.754;2023-02-17T15:14:52;97373.16;;;13.70;78.16
21185;BME280;18176;49.502;11.754;2023-02-17T15:18:53;97355.84;;;13.56;78.46
21185;BME280;18176;49.502;11.754;2023-02-17T15:22:57;97362.50;;;13.70;78.44
21185;BME280;18176;49.502;11.754;2023-02-17T15:26:57;97360.34;;;13.84;78.17
21185;BME280;18176;49.502;11.754;2023-02-17T15:31:01;97362.00;;;13.85;77.83
21185;BME280;18176;49.502;11.754;2023-02-17T15:35:17;97358.66;;;13.78;77.90
21185;BME280;18176;49.502;11.754;2023-02-17T15:39:21;97361.94;;;13.68;78.46
21185;BME280;18176;49.502;11.754;2023-02-17T15:43:22;97358.13;;;14.09;76.81
21185;BME280;18176;49.502;11.754;2023-02-17T15:47:23;97351.72;;;13.77;77.61
21185;BME280;18176;49.502;11.754;2023-02-17T15:51:23;97355.91;;;13.73;78.08
21185;BME280;18176;49.502;11.754;2023-02-17T15:55:28;97370.94;;;13.79;77.94
21185;BME280;18176;49.502;11.754;2023-02-17T15:59:28;97370.06;;;13.90;77.81
21185;BME280;18176;49.502;11.754;2023-02-17T16:03:30;97392.63;;;13.71;77.87
21185;BME280;18176;49.502;11.754;2023-02-17T16:07:30;97406.25;;;13.86;77.75
21185;BME280;18176;49.502;11.754;2023-02-17T16:11:44;97415.00;;;13.70;78.38
21185;BME280;18176;49.502;11.754;2023-02-17T16:15:46;97423.72;;;13.82;77.63
21185;BME280;18176;49.502;11.754;2023-02-17T16:19:47;97411.25;;;13.71;78.71
21185;BME280;18176;49.502;11.754;2023-02-17T16:23:48;97393.69;;;13.86;77.52
21185;BME280;18176;49.502;11.754;2023-02-17T16:27:52;97427.91;;;13.78;77.85
21185;BME280;18176;49.502;11.754;2023-02-17T16:31:53;97420.44;;;13.63;78.54
21185;BME280;18176;49.502;11.754;2023-02-17T16:35:54;97430.75;;;13.60;78.41
21185;BME280;18176;49.502;11.754;2023-02-17T16:39:55;97431.00;;;13.86;77.76
21185;BME280;18176;49.502;11.754;2023-02-17T16:43:59;97413.25;;;13.92;76.91
21185;BME280;18176;49.502;11.754;2023-02-17T16:48:00;97403.19;;;13.94;76.89
21185;BME280;18176;49.502;11.754;2023-02-17T16:52:05;97404.41;;;14.03;76.23
21185;BME280;18176;49.502;11.754;2023-02-17T16:56:15;97409.94;;;13.85;76.98
21185;BME280;18176;49.502;11.754;2023-02-17T17:00:23;97415.53;;;14.00;76.40
21185;BME280;18176;49.502;11.754;2023-02-17T17:04:25;97416.38;;;14.17;75.63
21185;BME280;18176;49.502;11.754;2023-02-17T17:08:26;97420.84;;;14.00;75.97
21185;BME280;18176;49.502;11.754;2023-02-17T17:12:26;97425.25;;;14.06;75.78
21185;BME280;18176;49.502;11.754;2023-02-17T17:16:32;97419.13;;;14.22;75.02
21185;BME280;18176;49.502;11.754;2023-02-17T17:20:37;97419.41;;;14.37;74.35
21185;BME280;18176;49.502;11.754;2023-02-17T17:24:38;97412.59;;;14.30;74.57
21185;BME280;18176;49.502;11.754;2023-02-17T17:28:39;97430.25;;;14.19;74.61
21185;BME280;18176;49.502;11.754;2023-02-17T17:32:43;97404.78;;;14.56;73.44
21185;BME280;18176;49.502;11.754;2023-02-17T17:36:46;97408.91;;;14.47;73.38
21185;BME280;18176;49.502;11.754;2023-02-17T17:40:47;97419.31;;;14.32;73.66
21185;BME280;18176;49.502;11.754;2023-02-17T17:44:49;97433.50;;;14.21;74.32
21185;BME280;18176;49.502;11.754;2023-02-17T17:48:54;97438.66;;;14.28;74.11
21185;BME280;18176;49.502;11.754;2023-02-17T17:53:00;97431.69;;;14.38;73.67
21185;BME280;18176;49.502;11.754;2023-02-17T17:57:02;97435.31;;;14.32;73.91
21185;BME280;18176;49.502;11.754;2023-02-17T18:01:03;97458.88;;;14.24;74.14
21185;BME280;18176;49.502;11.754;2023-02-17T18:05:07;97440.25;;;14.40;73.49
21185;BME280;18176;49.502;11.754;2023-02-17T18:09:13;97456.63;;;14.32;73.51
21185;BME280;18176;49.502;11.754;2023-02-17T18:13:28;97454.66;;;14.28;73.73
21185;BME280;18176;49.502;11.754;2023-02-17T18:17:32;97456.34;;;14.45;73.38
21185;BME280;18176;49.502;11.754;2023-02-17T18:21:37;97457.78;;;14.36;73.77
21185;BME280;18176;49.502;11.754;2023-02-17T18:25:39;97447.59;;;14.33;73.56
21185;BME280;18176;49.502;11.754;2023-02-17T18:29:41;97469.88;;;14.27;74.05
21185;BME280;18176;49.502;11.754;2023-02-17T18:33:42;97469.22;;;14.20;74.24
21185;BME280;18176;49.502;11.754;2023-02-17T18:37:55;97488.91;;;14.19;74.87
21185;BME280;18176;49.502;11.754;2023-02-17T18:41:55;97496.75;;;13.97;75.97
21185;BME280;18176;49.502;11.754;2023-02-17T18:45:56;97485.75;;;13.94;76.10
21185;BME280;18176;49.502;11.754;2023-02-17T18:50:01;97488.88;;;13.91;77.36
21185;BME280;18176;49.502;11.754;2023-02-17T18:54:04;97469.00;;;13.54;79.45
21185;BME280;18176;49.502;11.754;2023-02-17T18:58:09;97478.13;;;13.46;81.03
21185;BME280;18176;49.502;11.754;2023-02-17T19:02:11;97471.00;;;13.23;82.31
21185;BME280;18176;49.502;11.754;2023-02-17T19:06:16;97481.28;;;13.31;82.41
21185;BME280;18176;49.502;11.754;2023-02-17T19:10:20;97475.03;;;13.38;81.63
21185;BME280;18176;49.502;11.754;2023-02-17T19:14:21;97470.06;;;13.29;81.98
21185;BME280;18176;49.502;11.754;2023-02-17T19:18:23;97489.50;;;13.30;81.85
21185;BME280;18176;49.502;11.754;2023-02-17T19:22:24;97489.63;;;13.23;81.36
21185;BME280;18176;49.502;11.754;2023-02-17T19:26:28;97489.94;;;13.38;81.54
21185;BME280;18176;49.502;11.754;2023-02-17T19:30:29;97482.22;;;13.25;81.63
21185;BME280;18176;49.502;11.754;2023-02-17T19:34:32;97498.66;;;13.11;80.74
21185;BME280;18176;49.502;11.754;2023-02-17T19:38:35;97478.28;;;13.40;78.78
21185;BME280;18176;49.502;11.754;2023-02-17T19:42:41;97461.25;;;13.41;77.82
21185;BME280;18176;49.502;11.754;2023-02-17T19:46:44;97459.78;;;13.73;76.24
21185;BME280;18176;49.502;11.754;2023-02-17T19:50:44;97471.81;;;13.75;75.37
21185;BME280;18176;49.502;11.754;2023-02-17T19:54:48;97461.09;;;13.59;75.17
21185;BME280;18176;49.502;11.754;2023-02-17T19:58:54;97484.41;;;13.80;74.61
21185;BME280;18176;49.502;11.754;2023-02-17T20:02:57;97487.84;;;13.92;73.92
21185;BME280;18176;49.502;11.754;2023-02-17T20:06:58;97479.09;;;13.80;74.54
21185;BME280;18176;49.502;11.754;2023-02-17T20:11:09;97483.00;;;13.89;74.39
21185;BME280;18176;49.502;11.754;2023-02-17T20:15:15;97478.34;;;13.96;74.49
21185;BME280;18176;49.502;11.754;2023-02-17T20:19:18;97475.56;;;13.91;74.24
21185;BME280;18176;49.502;11.754;2023-02-17T20:23:21;97489.56;;;13.70;75.58
21185;BME280;18176;49.502;11.754;2023-02-17T20:27:21;97489.44;;;13.65;76.38
21185;BME280;18176;49.502;11.754;2023-02-17T20:31:26;97504.59;;;13.76;75.82
21185;BME280;18176;49.502;11.754;2023-02-17T20:35:30;97490.53;;;13.41;76.46
21185;BME280;18176;49.502;11.754;2023-02-17T20:39:33;97493.97;;;13.53;75.29
21185;BME280;18176;49.502;11.754;2023-02-17T20:43:37;97485.16;;;13.64;74.44
21185;BME280;18176;49.502;11.754;2023-02-17T20:47:40;97479.91;;;13.80;73.53
21185;BME280;18176;49.502;11.754;2023-02-17T20:51:45;97487.41;;;13.95;73.00
21185;BME280;18176;49.502;11.754;2023-02-17T20:55:46;97497.03;;;13.84;73.60
21185;BME280;18176;49.502;11.754;2023-02-17T20:59:49;97483.28;;;13.76;74.32
21185;BME280;18176;49.502;11.754;2023-02-17T21:03:53;97497.28;;;13.83;74.53
21185;BME280;18176;49.502;11.754;2023-02-17T21:07:55;97509.31;;;13.85;74.53
21185;BME280;18176;49.502;11.754;2023-02-17T21:11:56;97509.06;;;13.87;74.57
21185;BME280;18176;49.502;11.754;2023-02-17T21:15:58;97485.22;;;13.80;74.40
21185;BME280;18176;49.502;11.754;2023-02-17T21:20:04;97503.28;;;13.90;74.13
21185;BME280;18176;49.502;11.754;2023-02-17T21:24:05;97493.84;;;13.99;73.47
21185;BME280;18176;49.502;11.754;2023-02-17T21:28:06;97507.06;;;13.94;73.48